createdAt,value
2023-02-26T00:00:49.072Z,15.35
2023-02-26T00:01:39.153Z,15.34
2023-02-26T00:02:29.214Z,15.34
2023-02-26T00:03:19.320Z,15.35
2023-02-26T00:04:09.291Z,15.35
2023-02-26T00:04:59.339Z,15.34
2023-02-26T00:05:49.371Z,15.33
2023-02-26T00:06:39.465Z,15.34
2023-02-26T00:07:29.490Z,15.34
2023-02-26T00:08:19.590Z,15.35
2023-02-26T00:09:09.623Z,15.36
2023-02-26T00:09:59.706Z,15.35
2023-02-26T00:10:49.770Z,15.37
2023-02-26T00:11:39.818Z,15.39
2023-02-26T00:12:30.128Z,15.39
2023-02-26T00:13:20.252Z,15.40
2023-02-26T00:14:10.242Z,15.40
2023-02-26T00:15:00.300Z,15.42
2023-02-26T00:15:50.352Z,15.43
2023-02-26T00:16:40.413Z,15.45
2023-02-26T00:17:30.447Z,15.44
2023-02-26T00:18:20.523Z,15.45
2023-02-26T00:19:10.610Z,15.46
2023-02-26T00:20:00.641Z,15.45
2023-02-26T00:20:50.676Z,15.44
2023-02-26T00:21:40.762Z,15.46
2023-02-26T00:22:30.789Z,15.45
2023-02-26T00:23:20.858Z,15.45
2023-02-26T00:24:10.889Z,15.46
2023-02-26T00:25:00.982Z,15.47
2023-02-26T00:25:51.048Z,15.47
2023-02-26T00:26:41.093Z,15.47
2023-02-26T00:27:31.124Z,15.47
2023-02-26T00:28:21.193Z,15.48
2023-02-26T00:29:11.243Z,15.47
2023-02-26T00:30:01.310Z,15.49
2023-02-26T00:30:51.369Z,15.49
2023-02-26T00:31:41.477Z,15.50
2023-02-26T00:32:32.269Z,15.49
2023-02-26T00:33:21.565Z,15.49
2023-02-26T00:34:11.588Z,15.49
2023-02-26T00:35:01.628Z,15.49
2023-02-26T00:35:51.663Z,15.49
2023-02-26T00:36:41.703Z,15.51
2023-02-26T00:37:31.754Z,15.50
2023-02-26T00:38:21.792Z,15.48
2023-02-26T00:39:11.881Z,15.50
2023-02-26T00:40:01.950Z,15.50
2023-02-26T00:40:51.978Z,15.51
2023-02-26T00:41:42.366Z,15.51
2023-02-26T00:42:32.360Z,15.50
2023-02-26T00:43:22.454Z,15.51
2023-02-26T00:44:12.483Z,15.51
2023-02-26T00:45:02.610Z,15.51
2023-02-26T00:45:52.651Z,15.51
2023-02-26T00:46:42.658Z,15.53
2023-02-26T00:47:32.701Z,15.53
2023-02-26T00:48:22.796Z,15.53
2023-02-26T00:49:12.823Z,15.54
2023-02-26T00:50:02.868Z,15.52
2023-02-26T00:50:52.895Z,15.52
2023-02-26T00:51:42.936Z,15.54
2023-02-26T00:52:33.056Z,15.52
2023-02-26T00:53:23.087Z,15.53
2023-02-26T00:54:13.112Z,15.51
2023-02-26T00:55:03.183Z,15.52
2023-02-26T00:55:53.245Z,15.53
2023-02-26T00:56:43.320Z,15.53
2023-02-26T00:57:33.350Z,15.53
2023-02-26T00:58:23.459Z,15.55
2023-02-26T00:59:13.663Z,15.53
2023-02-26T01:00:03.748Z,15.55
2023-02-26T01:00:53.814Z,15.53
2023-02-26T01:01:43.821Z,15.54
2023-02-26T01:02:33.856Z,15.54
2023-02-26T01:03:23.959Z,15.54
2023-02-26T01:04:14.089Z,15.55
2023-02-26T01:05:04.057Z,15.56
2023-02-26T01:05:54.130Z,15.56
2023-02-26T01:06:44.208Z,15.56
2023-02-26T01:07:34.238Z,15.56
2023-02-26T01:08:24.589Z,15.56
2023-02-26T01:09:14.628Z,15.56
2023-02-26T01:10:04.672Z,15.57
2023-02-26T01:10:54.699Z,15.57
2023-02-26T01:11:44.785Z,15.57
2023-02-26T01:12:34.821Z,15.58
2023-02-26T01:13:24.910Z,15.58
2023-02-26T01:14:14.936Z,15.58
2023-02-26T01:15:05.015Z,15.58
2023-02-26T01:15:55.090Z,15.57
2023-02-26T01:16:45.121Z,15.58
2023-02-26T01:17:35.126Z,15.57
2023-02-26T01:18:25.184Z,15.57
2023-02-26T01:19:15.236Z,15.57
2023-02-26T01:20:05.304Z,15.58
2023-02-26T01:20:55.367Z,15.58
2023-02-26T01:21:45.449Z,15.58
2023-02-26T01:22:35.470Z,15.58
2023-02-26T01:23:25.536Z,15.58
2023-02-26T01:24:15.559Z,15.59
2023-02-26T01:25:05.613Z,15.60
2023-02-26T01:25:55.628Z,15.59
2023-02-26T01:26:45.720Z,15.58
2023-02-26T01:27:35.749Z,15.60
2023-02-26T01:28:25.820Z,15.59
2023-02-26T01:29:15.856Z,15.58
2023-02-26T01:30:05.909Z,15.56
2023-02-26T01:30:56.080Z,15.58
2023-02-26T01:31:46.185Z,15.58
2023-02-26T01:32:36.089Z,15.57
2023-02-26T01:33:26.100Z,15.56
2023-02-26T01:34:16.142Z,15.56
2023-02-26T01:35:06.314Z,15.58
2023-02-26T01:35:56.394Z,15.56
2023-02-26T01:36:46.413Z,15.57
2023-02-26T01:37:36.487Z,15.56
2023-02-26T01:38:26.576Z,15.57
2023-02-26T01:39:16.621Z,15.59
2023-02-26T01:40:06.662Z,15.59
2023-02-26T01:40:56.739Z,15.59
2023-02-26T01:41:46.778Z,15.57
2023-02-26T01:42:36.820Z,15.58
2023-02-26T01:43:26.865Z,15.58
2023-02-26T01:44:16.907Z,15.58
2023-02-26T01:45:06.948Z,15.58
2023-02-26T01:45:56.984Z,15.58
2023-02-26T01:46:47.106Z,15.58
2023-02-26T01:47:37.131Z,15.58
2023-02-26T01:48:27.203Z,15.57
2023-02-26T01:49:17.223Z,15.58
2023-02-26T01:50:07.248Z,15.58
2023-02-26T01:50:57.316Z,15.57
2023-02-26T01:51:47.370Z,15.58
2023-02-26T01:52:37.397Z,15.57
2023-02-26T01:53:27.500Z,15.56
2023-02-26T01:54:18.033Z,15.55
2023-02-26T01:55:07.658Z,15.53
2023-02-26T01:55:57.740Z,15.53
2023-02-26T01:56:47.773Z,15.53
2023-02-26T01:57:38.122Z,15.52
2023-02-26T01:58:28.169Z,15.52
2023-02-26T01:59:18.199Z,15.52
2023-02-26T02:00:08.244Z,15.51
2023-02-26T02:00:58.298Z,15.52
2023-02-26T02:01:48.366Z,15.51
2023-02-26T02:02:38.516Z,15.51
2023-02-26T02:03:28.602Z,15.52
2023-02-26T02:04:18.560Z,15.50
2023-02-26T02:05:08.617Z,15.49
2023-02-26T02:05:58.652Z,15.49
2023-02-26T02:06:48.990Z,15.48
2023-02-26T02:07:39.022Z,15.47
2023-02-26T02:08:29.100Z,15.46
2023-02-26T02:09:19.118Z,15.45
2023-02-26T02:10:09.162Z,15.43
2023-02-26T02:10:59.198Z,15.42
2023-02-26T02:11:49.238Z,15.40
2023-02-26T02:12:39.272Z,15.39
2023-02-26T02:13:29.382Z,15.39
2023-02-26T02:14:19.417Z,15.37
2023-02-26T02:15:09.473Z,15.36
2023-02-26T02:15:59.549Z,15.36
2023-02-26T02:16:49.656Z,15.35
2023-02-26T02:17:39.633Z,15.33
2023-02-26T02:18:29.699Z,15.33
2023-02-26T02:19:19.726Z,15.32
2023-02-26T02:20:09.836Z,15.30
2023-02-26T02:20:59.845Z,15.27
2023-02-26T02:21:49.884Z,15.28
2023-02-26T02:22:39.952Z,15.26
2023-02-26T02:23:30.041Z,15.27
2023-02-26T02:24:20.065Z,15.26
2023-02-26T02:25:10.140Z,15.26
2023-02-26T02:26:00.191Z,15.25
2023-02-26T02:26:50.257Z,15.24
2023-02-26T02:27:40.335Z,15.24
2023-02-26T02:28:30.390Z,15.23
2023-02-26T02:29:20.644Z,15.23
2023-02-26T02:30:10.703Z,15.21
2023-02-26T02:31:00.843Z,15.21
2023-02-26T02:31:50.995Z,15.21
2023-02-26T02:32:40.885Z,15.21
2023-02-26T02:33:30.943Z,15.20
2023-02-26T02:34:20.968Z,15.20
2023-02-26T02:35:11.015Z,15.18
2023-02-26T02:36:01.286Z,15.18
2023-02-26T02:36:51.343Z,15.19
2023-02-26T02:37:41.380Z,15.18
2023-02-26T02:38:31.745Z,15.18
2023-02-26T02:39:21.781Z,15.17
2023-02-26T02:40:11.830Z,15.16
2023-02-26T02:41:01.862Z,15.16
2023-02-26T02:41:51.943Z,15.14
2023-02-26T02:42:41.980Z,15.15
2023-02-26T02:43:32.068Z,15.14
2023-02-26T02:44:22.099Z,15.14
2023-02-26T02:45:12.179Z,15.15
2023-02-26T02:46:02.277Z,15.14
2023-02-26T02:46:52.381Z,15.15
2023-02-26T02:47:42.331Z,15.13
2023-02-26T02:48:32.396Z,15.13
2023-02-26T02:49:22.457Z,15.13
2023-02-26T02:50:12.478Z,15.12
2023-02-26T02:51:02.628Z,15.12
2023-02-26T02:51:52.599Z,15.13
2023-02-26T02:52:42.631Z,15.12
2023-02-26T02:53:32.698Z,15.13
2023-02-26T02:54:22.724Z,15.12
2023-02-26T02:55:12.808Z,15.11
2023-02-26T02:56:02.830Z,15.12
2023-02-26T02:56:52.904Z,15.09
2023-02-26T02:57:42.937Z,15.10
2023-02-26T02:58:33.043Z,15.10
2023-02-26T02:59:23.065Z,15.10
2023-02-26T03:00:13.139Z,15.08
2023-02-26T03:01:03.462Z,15.09
2023-02-26T03:01:53.447Z,15.09
2023-02-26T03:02:43.503Z,15.08
2023-02-26T03:03:33.563Z,15.07
2023-02-26T03:04:23.601Z,15.08
2023-02-26T03:05:13.676Z,15.07
2023-02-26T03:06:03.707Z,15.06
2023-02-26T03:06:53.815Z,15.06
2023-02-26T03:07:43.817Z,15.04
2023-02-26T03:08:33.901Z,15.05
2023-02-26T03:09:23.921Z,15.05
2023-02-26T03:10:13.994Z,15.05
2023-02-26T03:11:04.020Z,15.04
2023-02-26T03:11:54.101Z,15.03
2023-02-26T03:12:44.132Z,15.02
2023-02-26T03:13:34.196Z,15.02
2023-02-26T03:14:24.262Z,15.03
2023-02-26T03:15:14.338Z,15.02
2023-02-26T03:16:04.439Z,15.01
2023-02-26T03:16:54.782Z,15.00
2023-02-26T03:17:44.728Z,15.00
2023-02-26T03:18:34.834Z,14.99
2023-02-26T03:19:24.862Z,14.98
2023-02-26T03:20:14.952Z,14.99
2023-02-26T03:21:04.975Z,15.00
2023-02-26T03:21:55.073Z,14.97
2023-02-26T03:22:45.117Z,14.99
2023-02-26T03:23:35.170Z,14.99
2023-02-26T03:24:25.208Z,14.98
2023-02-26T03:25:15.280Z,14.98
2023-02-26T03:26:05.565Z,15.00
2023-02-26T03:26:55.602Z,14.99
2023-02-26T03:27:45.644Z,14.98
2023-02-26T03:28:35.706Z,14.99
2023-02-26T03:29:25.733Z,14.97
2023-02-26T03:30:15.832Z,14.98
2023-02-26T03:31:05.923Z,14.97
2023-02-26T03:31:56.113Z,14.96
2023-02-26T03:32:45.965Z,14.95
2023-02-26T03:33:36.065Z,14.96
2023-02-26T03:34:26.099Z,14.95
2023-02-26T03:35:16.432Z,14.95
2023-02-26T03:36:06.463Z,14.94
2023-02-26T03:36:56.501Z,14.93
2023-02-26T03:37:46.528Z,14.95
2023-02-26T03:38:36.608Z,14.95
2023-02-26T03:39:26.627Z,14.94
2023-02-26T03:40:16.703Z,14.94
2023-02-26T03:41:06.737Z,14.92
2023-02-26T03:41:56.818Z,14.91
2023-02-26T03:42:46.848Z,14.92
2023-02-26T03:43:36.957Z,14.91
2023-02-26T03:44:27.242Z,14.90
2023-02-26T03:45:17.328Z,14.91
2023-02-26T03:46:07.473Z,14.90
2023-02-26T03:46:57.409Z,14.90
2023-02-26T03:47:47.434Z,14.89
2023-02-26T03:48:37.594Z,14.89
2023-02-26T03:49:27.547Z,14.88
2023-02-26T03:50:17.626Z,14.87
2023-02-26T03:51:07.695Z,14.89
2023-02-26T03:51:57.773Z,14.88
2023-02-26T03:52:47.801Z,14.89
2023-02-26T03:53:38.065Z,14.88
2023-02-26T03:54:28.129Z,14.88
2023-02-26T03:55:18.192Z,14.88
2023-02-26T03:56:08.214Z,14.87
2023-02-26T03:56:58.296Z,14.88
2023-02-26T03:57:48.320Z,14.88
2023-02-26T03:58:38.421Z,14.88
2023-02-26T03:59:28.448Z,14.89
2023-02-26T04:00:18.525Z,14.88
2023-02-26T04:01:08.553Z,14.88
2023-02-26T04:01:58.653Z,14.87
2023-02-26T04:02:48.927Z,14.87
2023-02-26T04:03:39.045Z,14.87
2023-02-26T04:04:29.111Z,14.85
2023-02-26T04:05:19.125Z,14.84
2023-02-26T04:06:09.154Z,14.86
2023-02-26T04:06:59.237Z,14.84
2023-02-26T04:07:49.285Z,14.85
2023-02-26T04:08:39.358Z,14.86
2023-02-26T04:09:29.386Z,14.86
2023-02-26T04:10:19.490Z,14.86
2023-02-26T04:11:09.496Z,14.86
2023-02-26T04:11:59.835Z,14.85
2023-02-26T04:12:49.858Z,14.85
2023-02-26T04:13:39.955Z,14.84
2023-02-26T04:14:29.998Z,14.85
2023-02-26T04:15:20.077Z,14.84
2023-02-26T04:16:10.114Z,14.85
2023-02-26T04:17:00.378Z,14.81
2023-02-26T04:17:50.219Z,14.83
2023-02-26T04:18:40.355Z,14.83
2023-02-26T04:19:30.344Z,14.84
2023-02-26T04:20:20.423Z,14.84
2023-02-26T04:21:10.708Z,14.83
2023-02-26T04:22:00.792Z,14.83
2023-02-26T04:22:50.813Z,14.82
2023-02-26T04:23:40.912Z,14.82
2023-02-26T04:24:30.940Z,14.80
2023-02-26T04:25:21.023Z,14.80
2023-02-26T04:26:11.082Z,14.81
2023-02-26T04:27:01.121Z,14.82
2023-02-26T04:27:51.193Z,14.82
2023-02-26T04:28:41.285Z,14.81
2023-02-26T04:29:31.311Z,14.82
2023-02-26T04:30:21.651Z,14.82
2023-02-26T04:31:11.804Z,14.83
2023-02-26T04:32:01.883Z,14.82
2023-02-26T04:32:51.773Z,14.80
2023-02-26T04:33:41.876Z,14.80
2023-02-26T04:34:31.906Z,14.80
2023-02-26T04:35:21.962Z,14.78
2023-02-26T04:36:11.998Z,14.78
2023-02-26T04:37:02.080Z,14.80
2023-02-26T04:37:52.119Z,14.81
2023-02-26T04:38:42.212Z,14.79
2023-02-26T04:39:32.494Z,14.79
2023-02-26T04:40:22.577Z,14.78
2023-02-26T04:41:12.607Z,14.79
2023-02-26T04:42:02.972Z,14.79
2023-02-26T04:42:53.014Z,14.81
2023-02-26T04:43:43.111Z,14.81
2023-02-26T04:44:33.390Z,14.81
2023-02-26T04:45:23.464Z,14.80
2023-02-26T04:46:13.643Z,14.81
2023-02-26T04:47:03.568Z,14.80
2023-02-26T04:47:53.590Z,14.79
2023-02-26T04:48:43.685Z,14.80
2023-02-26T04:49:33.716Z,14.79
2023-02-26T04:50:23.789Z,14.80
2023-02-26T04:51:13.820Z,14.80
2023-02-26T04:52:03.933Z,14.79
2023-02-26T04:52:53.947Z,14.79
2023-02-26T04:53:44.310Z,14.79
2023-02-26T04:54:34.275Z,14.78
2023-02-26T04:55:24.349Z,14.78
2023-02-26T04:56:14.386Z,14.77
2023-02-26T04:57:04.445Z,14.76
2023-02-26T04:57:54.459Z,14.77
2023-02-26T04:58:44.570Z,14.76
2023-02-26T04:59:34.588Z,14.76
2023-02-26T05:00:24.665Z,14.78
2023-02-26T05:01:14.825Z,14.77
2023-02-26T05:02:04.756Z,14.77
2023-02-26T05:02:54.832Z,14.77
2023-02-26T05:03:44.884Z,14.77
2023-02-26T05:04:34.959Z,14.74
2023-02-26T05:05:24.940Z,14.74
2023-02-26T05:06:15.013Z,14.75
2023-02-26T05:07:05.060Z,14.75
2023-02-26T05:07:55.131Z,14.75
2023-02-26T05:08:45.183Z,14.75
2023-02-26T05:09:35.209Z,14.74
2023-02-26T05:10:25.287Z,14.74
2023-02-26T05:11:15.361Z,14.75
2023-02-26T05:12:05.423Z,14.74
2023-02-26T05:12:55.526Z,14.75
2023-02-26T05:13:45.553Z,14.75
2023-02-26T05:14:35.594Z,14.74
2023-02-26T05:15:25.616Z,14.74
2023-02-26T05:16:15.966Z,14.73
2023-02-26T05:17:05.918Z,14.73
2023-02-26T05:17:56.002Z,14.74
2023-02-26T05:18:46.340Z,14.74
2023-02-26T05:19:36.372Z,14.75
2023-02-26T05:20:26.404Z,14.75
2023-02-26T05:21:16.453Z,14.72
2023-02-26T05:22:06.484Z,14.73
2023-02-26T05:22:56.522Z,14.73
2023-02-26T05:23:46.568Z,14.73
2023-02-26T05:24:36.628Z,14.71
2023-02-26T05:25:26.694Z,14.72
2023-02-26T05:26:16.764Z,14.71
2023-02-26T05:27:06.794Z,14.71
2023-02-26T05:27:57.129Z,14.70
2023-02-26T05:28:47.242Z,14.71
2023-02-26T05:29:37.217Z,14.69
2023-02-26T05:30:27.286Z,14.70
2023-02-26T05:31:17.392Z,14.69
2023-02-26T05:32:07.434Z,14.68
2023-02-26T05:32:57.461Z,14.69
2023-02-26T05:33:47.509Z,14.69
2023-02-26T05:34:37.546Z,14.71
2023-02-26T05:35:27.575Z,14.71
2023-02-26T05:36:17.605Z,14.71
2023-02-26T05:37:07.644Z,14.71
2023-02-26T05:37:57.693Z,14.70
2023-02-26T05:38:47.740Z,14.68
2023-02-26T05:39:37.771Z,14.68
2023-02-26T05:40:27.838Z,14.69
2023-02-26T05:41:17.928Z,14.68
2023-02-26T05:42:07.957Z,14.67
2023-02-26T05:42:58.017Z,14.66
2023-02-26T05:43:48.068Z,14.67
2023-02-26T05:44:38.110Z,14.66
2023-02-26T05:45:28.117Z,14.66
2023-02-26T05:46:18.226Z,14.65
2023-02-26T05:47:08.223Z,14.66
2023-02-26T05:47:58.297Z,14.66
2023-02-26T05:48:48.359Z,14.65
2023-02-26T05:49:38.385Z,14.64
2023-02-26T05:50:28.425Z,14.63
2023-02-26T05:51:18.457Z,14.63
2023-02-26T05:52:08.481Z,14.64
2023-02-26T05:52:58.559Z,14.63
2023-02-26T05:53:48.641Z,14.63
2023-02-26T05:54:38.704Z,14.63
2023-02-26T05:55:28.736Z,14.62
2023-02-26T05:56:18.806Z,14.62
2023-02-26T05:57:09.092Z,14.62
2023-02-26T05:57:59.175Z,14.63
2023-02-26T05:58:49.216Z,14.63
2023-02-26T05:59:39.281Z,14.63
2023-02-26T06:00:29.315Z,14.62
2023-02-26T06:01:19.373Z,14.62
2023-02-26T06:02:09.515Z,14.62
2023-02-26T06:02:59.543Z,14.62
2023-02-26T06:03:49.537Z,14.62
2023-02-26T06:04:39.579Z,14.62
2023-02-26T06:05:29.617Z,14.61
2023-02-26T06:06:19.696Z,14.62
2023-02-26T06:07:09.730Z,14.61
2023-02-26T06:07:59.813Z,14.60
2023-02-26T06:08:49.856Z,14.60
2023-02-26T06:09:39.894Z,14.60
2023-02-26T06:10:29.926Z,14.60
2023-02-26T06:11:20.039Z,14.60
2023-02-26T06:12:10.049Z,14.58
2023-02-26T06:13:00.371Z,14.60
2023-02-26T06:13:50.420Z,14.59
2023-02-26T06:14:40.456Z,14.60
2023-02-26T06:15:30.518Z,14.60
2023-02-26T06:16:20.619Z,14.61
2023-02-26T06:17:10.627Z,14.59
2023-02-26T06:18:00.667Z,14.60
2023-02-26T06:18:50.710Z,14.61
2023-02-26T06:19:40.750Z,14.59
2023-02-26T06:20:30.781Z,14.59
2023-02-26T06:21:20.851Z,14.59
2023-02-26T06:22:11.178Z,14.59
2023-02-26T06:23:01.260Z,14.59
2023-02-26T06:23:51.296Z,14.60
2023-02-26T06:24:41.337Z,14.60
2023-02-26T06:25:31.376Z,14.59
2023-02-26T06:26:23.715Z,14.61
2023-02-26T06:27:11.507Z,14.59
2023-02-26T06:28:01.557Z,14.60
2023-02-26T06:28:51.771Z,14.59
2023-02-26T06:29:41.812Z,14.59
2023-02-26T06:30:31.903Z,14.58
2023-02-26T06:31:21.956Z,14.59
2023-02-26T06:32:12.023Z,14.59
2023-02-26T06:33:01.975Z,14.58
2023-02-26T06:33:52.034Z,14.57
2023-02-26T06:34:42.075Z,14.59
2023-02-26T06:35:32.167Z,14.59
2023-02-26T06:36:22.250Z,14.58
2023-02-26T06:37:12.276Z,14.58
2023-02-26T06:38:02.360Z,14.57
2023-02-26T06:38:52.413Z,14.57
2023-02-26T06:39:42.439Z,14.56
2023-02-26T06:40:32.469Z,14.58
2023-02-26T06:41:22.545Z,14.58
2023-02-26T06:42:12.591Z,14.59
2023-02-26T06:43:02.624Z,14.60
2023-02-26T06:43:52.675Z,14.61
2023-02-26T06:44:42.713Z,14.60
2023-02-26T06:45:32.840Z,14.61
2023-02-26T06:46:23.110Z,14.60
2023-02-26T06:47:12.861Z,14.60
2023-02-26T06:48:03.017Z,14.60
2023-02-26T06:48:52.993Z,14.60
2023-02-26T06:49:43.032Z,14.60
2023-02-26T06:50:33.057Z,14.59
2023-02-26T06:51:23.402Z,14.60
2023-02-26T06:52:13.430Z,14.61
2023-02-26T06:53:03.506Z,14.59
2023-02-26T06:53:53.840Z,14.61
2023-02-26T06:54:43.899Z,14.60
2023-02-26T06:55:33.914Z,14.62
2023-02-26T06:56:24.446Z,14.61
2023-02-26T06:57:14.018Z,14.61
2023-02-26T06:58:04.263Z,14.61
2023-02-26T06:58:54.307Z,14.61
2023-02-26T06:59:44.380Z,14.61
2023-02-26T07:00:34.413Z,14.62
2023-02-26T07:01:24.484Z,14.61
2023-02-26T07:02:14.564Z,14.61
2023-02-26T07:03:04.613Z,14.60
2023-02-26T07:03:54.643Z,14.61
2023-02-26T07:04:44.700Z,14.60
2023-02-26T07:05:34.731Z,14.60
2023-02-26T07:06:27.876Z,14.62
2023-02-26T07:07:14.870Z,14.61
2023-02-26T07:08:04.946Z,14.63
2023-02-26T07:08:55.117Z,14.64
2023-02-26T07:09:46.144Z,14.65
2023-02-26T07:10:35.110Z,14.67
2023-02-26T07:11:25.168Z,14.68
2023-02-26T07:12:15.228Z,14.69
2023-02-26T07:13:05.289Z,14.70
2023-02-26T07:13:55.365Z,14.72
2023-02-26T07:14:45.433Z,14.73
2023-02-26T07:15:35.422Z,14.73
2023-02-26T07:16:25.897Z,14.74
2023-02-26T07:17:15.703Z,14.75
2023-02-26T07:18:05.779Z,14.76
2023-02-26T07:18:55.821Z,14.76
2023-02-26T07:19:45.880Z,14.76
2023-02-26T07:20:35.932Z,14.74
2023-02-26T07:21:25.974Z,14.75
2023-02-26T07:22:16.040Z,14.77
2023-02-26T07:23:06.081Z,14.76
2023-02-26T07:23:56.140Z,14.77
2023-02-26T07:24:46.173Z,14.78
2023-02-26T07:25:36.203Z,14.77
2023-02-26T07:26:26.882Z,14.77
2023-02-26T07:27:16.588Z,14.77
2023-02-26T07:28:06.668Z,14.77
2023-02-26T07:28:56.712Z,14.78
2023-02-26T07:29:46.748Z,14.78
2023-02-26T07:30:36.912Z,14.79
2023-02-26T07:31:27.049Z,14.79
2023-02-26T07:32:16.983Z,14.81
2023-02-26T07:33:06.981Z,14.81
2023-02-26T07:33:57.023Z,14.79
2023-02-26T07:34:47.059Z,14.79
2023-02-26T07:35:37.153Z,14.79
2023-02-26T07:36:27.580Z,14.79
2023-02-26T07:37:17.223Z,14.78
2023-02-26T07:38:07.264Z,14.79
2023-02-26T07:38:57.333Z,14.78
2023-02-26T07:39:47.418Z,14.78
2023-02-26T07:40:37.462Z,14.79
2023-02-26T07:41:27.524Z,14.79
2023-02-26T07:42:17.554Z,14.80
2023-02-26T07:43:07.658Z,14.80
2023-02-26T07:43:57.713Z,14.81
2023-02-26T07:44:47.746Z,14.81
2023-02-26T07:45:37.778Z,14.82
2023-02-26T07:46:28.241Z,14.84
2023-02-26T07:47:17.918Z,14.82
2023-02-26T07:48:07.988Z,14.83
2023-02-26T07:48:58.066Z,14.84
2023-02-26T07:49:48.100Z,14.84
2023-02-26T07:50:38.153Z,14.85
2023-02-26T07:51:28.396Z,14.87
2023-02-26T07:52:18.290Z,14.87
2023-02-26T07:53:08.317Z,14.87
2023-02-26T07:53:58.589Z,14.87
2023-02-26T07:54:48.632Z,14.89
2023-02-26T07:55:38.665Z,14.89
2023-02-26T07:56:28.793Z,14.88
2023-02-26T07:57:18.755Z,14.87
2023-02-26T07:58:08.796Z,14.86
2023-02-26T07:58:58.831Z,14.87
2023-02-26T07:59:48.870Z,14.88
2023-02-26T08:00:39.000Z,14.88
2023-02-26T08:01:29.048Z,14.87
2023-02-26T08:02:19.082Z,14.88
2023-02-26T08:03:09.126Z,14.89
2023-02-26T08:03:59.243Z,14.90
2023-02-26T08:04:49.247Z,14.91
2023-02-26T08:05:39.297Z,14.91
2023-02-26T08:06:29.376Z,14.92
2023-02-26T08:07:19.439Z,14.92
2023-02-26T08:08:09.453Z,14.91
2023-02-26T08:08:59.499Z,14.88
2023-02-26T08:09:49.539Z,14.89
2023-02-26T08:10:41.903Z,14.89
2023-02-26T08:11:29.607Z,14.88
2023-02-26T08:12:19.680Z,14.92
2023-02-26T08:13:09.954Z,14.91
2023-02-26T08:14:00.004Z,14.91
2023-02-26T08:14:50.042Z,14.91
2023-02-26T08:15:40.122Z,14.93
2023-02-26T08:16:30.110Z,14.93
2023-02-26T08:17:20.143Z,14.94
2023-02-26T08:18:10.249Z,14.95
2023-02-26T08:19:00.293Z,14.94
2023-02-26T08:19:50.349Z,14.95
2023-02-26T08:20:40.416Z,14.97
2023-02-26T08:21:30.451Z,14.97
2023-02-26T08:22:20.456Z,14.98
2023-02-26T08:23:10.557Z,15.00
2023-02-26T08:24:00.595Z,14.99
2023-02-26T08:24:50.657Z,14.97
2023-02-26T08:25:40.718Z,14.98
2023-02-26T08:26:30.790Z,15.01
2023-02-26T08:27:20.847Z,15.00
2023-02-26T08:28:10.911Z,15.01
2023-02-26T08:29:00.979Z,15.04
2023-02-26T08:29:51.018Z,15.05
2023-02-26T08:30:41.097Z,15.07
2023-02-26T08:31:31.427Z,15.06
2023-02-26T08:32:21.471Z,15.07
2023-02-26T08:33:11.442Z,15.09
2023-02-26T08:34:01.490Z,15.11
2023-02-26T08:34:51.541Z,15.14
2023-02-26T08:35:41.580Z,15.16
2023-02-26T08:36:31.673Z,15.17
2023-02-26T08:37:21.716Z,15.17
2023-02-26T08:38:11.768Z,15.16
2023-02-26T08:39:01.892Z,15.16
2023-02-26T08:39:51.922Z,15.16
2023-02-26T08:40:41.947Z,15.15
2023-02-26T08:41:31.984Z,15.16
2023-02-26T08:42:22.029Z,15.16
2023-02-26T08:43:12.076Z,15.16
2023-02-26T08:44:02.116Z,15.17
2023-02-26T08:44:52.200Z,15.18
2023-02-26T08:45:42.228Z,15.19
2023-02-26T08:46:32.305Z,15.19
2023-02-26T08:47:28.740Z,15.20
2023-02-26T08:48:13.372Z,15.18
2023-02-26T08:49:02.430Z,15.19
2023-02-26T08:49:52.447Z,15.19
2023-02-26T08:50:42.516Z,15.18
2023-02-26T08:51:32.588Z,15.19
2023-02-26T08:52:22.665Z,15.18
2023-02-26T08:53:12.732Z,15.20
2023-02-26T08:54:02.809Z,15.22
2023-02-26T08:54:52.864Z,15.22
2023-02-26T08:55:42.909Z,15.23
2023-02-26T08:56:32.989Z,15.22
2023-02-26T08:57:23.163Z,15.22
2023-02-26T08:58:13.198Z,15.22
2023-02-26T08:59:03.274Z,15.20
2023-02-26T08:59:53.312Z,15.23
2023-02-26T09:00:43.332Z,15.22
2023-02-26T09:01:33.431Z,15.23
2023-02-26T09:02:23.490Z,15.23
2023-02-26T09:03:13.621Z,15.24
2023-02-26T09:04:03.597Z,15.24
2023-02-26T09:04:53.633Z,15.25
2023-02-26T09:05:43.696Z,15.23
2023-02-26T09:06:33.775Z,15.23
2023-02-26T09:07:23.793Z,15.25
2023-02-26T09:08:13.872Z,15.25
2023-02-26T09:09:03.952Z,15.27
2023-02-26T09:09:53.993Z,15.25
2023-02-26T09:10:44.060Z,15.26
2023-02-26T09:11:34.123Z,15.26
2023-02-26T09:12:24.354Z,15.26
2023-02-26T09:13:14.436Z,15.27
2023-02-26T09:14:04.494Z,15.27
2023-02-26T09:14:54.532Z,15.28
2023-02-26T09:15:44.559Z,15.28
2023-02-26T09:16:34.669Z,15.26
2023-02-26T09:17:24.664Z,15.27
2023-02-26T09:18:14.790Z,15.26
2023-02-26T09:19:04.802Z,15.25
2023-02-26T09:19:54.831Z,15.27
2023-02-26T09:20:44.869Z,15.26
2023-02-26T09:21:35.214Z,15.27
2023-02-26T09:22:25.269Z,15.26
2023-02-26T09:23:15.300Z,15.26
2023-02-26T09:24:05.345Z,15.27
2023-02-26T09:24:55.394Z,15.27
2023-02-26T09:25:45.422Z,15.27
2023-02-26T09:26:35.524Z,15.28
2023-02-26T09:27:25.531Z,15.29
2023-02-26T09:28:15.649Z,15.28
2023-02-26T09:29:05.680Z,15.28
2023-02-26T09:29:55.747Z,15.29
2023-02-26T09:30:46.093Z,15.27
2023-02-26T09:31:36.146Z,15.28
2023-02-26T09:32:26.351Z,15.28
2023-02-26T09:33:16.192Z,15.27
2023-02-26T09:34:06.248Z,15.27
2023-02-26T09:34:56.301Z,15.27
2023-02-26T09:35:46.329Z,15.28
2023-02-26T09:36:36.407Z,15.29
2023-02-26T09:37:26.458Z,15.27
2023-02-26T09:38:16.535Z,15.28
2023-02-26T09:39:06.612Z,15.27
2023-02-26T09:39:56.642Z,15.27
2023-02-26T09:40:46.673Z,15.29
2023-02-26T09:41:36.755Z,15.28
2023-02-26T09:42:26.807Z,15.29
2023-02-26T09:43:16.860Z,15.28
2023-02-26T09:44:06.911Z,15.28
2023-02-26T09:44:56.946Z,15.29
2023-02-26T09:45:47.014Z,15.28
2023-02-26T09:46:37.014Z,15.28
2023-02-26T09:47:27.086Z,15.29
2023-02-26T09:48:17.164Z,15.29
2023-02-26T09:49:07.208Z,15.29
2023-02-26T09:49:57.271Z,15.28
2023-02-26T09:50:47.272Z,15.28
2023-02-26T09:51:37.348Z,15.29
2023-02-26T09:52:27.416Z,15.28
2023-02-26T09:53:17.682Z,15.28
2023-02-26T09:54:07.718Z,15.29
2023-02-26T09:54:57.777Z,15.29
2023-02-26T09:55:47.922Z,15.29
2023-02-26T09:56:37.851Z,15.28
2023-02-26T09:57:27.896Z,15.29
2023-02-26T09:58:19.052Z,15.29
2023-02-26T09:59:08.010Z,15.28
2023-02-26T09:59:58.061Z,15.29
2023-02-26T10:00:48.085Z,15.28
2023-02-26T10:01:38.250Z,15.29
2023-02-26T10:02:28.203Z,15.29
2023-02-26T10:03:18.249Z,15.29
2023-02-26T10:04:08.398Z,15.29
2023-02-26T10:04:58.323Z,15.29
2023-02-26T10:05:48.361Z,15.30
2023-02-26T10:06:38.431Z,15.29
2023-02-26T10:07:28.472Z,15.29
2023-02-26T10:08:18.642Z,15.29
2023-02-26T10:09:08.697Z,15.30
2023-02-26T10:09:58.732Z,15.29
2023-02-26T10:10:48.766Z,15.30
2023-02-26T10:11:38.814Z,15.29
2023-02-26T10:12:28.867Z,15.30
2023-02-26T10:13:18.903Z,15.29
2023-02-26T10:14:08.984Z,15.29
2023-02-26T10:14:59.049Z,15.30
2023-02-26T10:15:49.077Z,15.29
2023-02-26T10:16:39.267Z,15.29
2023-02-26T10:17:29.221Z,15.31
2023-02-26T10:18:19.277Z,15.30
2023-02-26T10:19:09.334Z,15.30
2023-02-26T10:19:59.377Z,15.31
2023-02-26T10:20:49.471Z,15.30
2023-02-26T10:21:39.510Z,15.30
2023-02-26T10:22:29.539Z,15.29
2023-02-26T10:23:19.627Z,15.30
2023-02-26T10:24:09.664Z,15.31
2023-02-26T10:24:59.707Z,15.31
2023-02-26T10:25:49.735Z,15.31
2023-02-26T10:26:39.815Z,15.31
2023-02-26T10:27:29.847Z,15.32
2023-02-26T10:28:19.938Z,15.31
2023-02-26T10:29:09.997Z,15.32
2023-02-26T10:30:00.068Z,15.30
2023-02-26T10:30:50.083Z,15.32
2023-02-26T10:31:40.162Z,15.32
2023-02-26T10:32:30.293Z,15.31
2023-02-26T10:33:20.219Z,15.32
2023-02-26T10:34:10.282Z,15.32
2023-02-26T10:35:00.355Z,15.32
2023-02-26T10:35:50.388Z,15.32
2023-02-26T10:36:40.467Z,15.32
2023-02-26T10:37:30.800Z,15.32
2023-02-26T10:38:20.878Z,15.32
2023-02-26T10:39:10.933Z,15.33
2023-02-26T10:40:00.973Z,15.33
2023-02-26T10:40:51.011Z,15.33
2023-02-26T10:41:41.099Z,15.32
2023-02-26T10:42:31.125Z,15.32
2023-02-26T10:43:21.206Z,15.32
2023-02-26T10:44:11.262Z,15.32
2023-02-26T10:45:01.301Z,15.32